sensor_id;sensor_type;location;lat;lon;timestamp;pressure;altitude;pressure_sealevel;temperature;humidity
9523;BME280;63165;43.016;25.784;2023-06-14T00:01:04;99720.06;;;19.84;83.24
9523;BME280;63165;43.016;25.784;2023-06-14T00:03:33;99713.72;;;19.87;83.85
9523;BME280;63165;43.016;25.784;2023-06-14T00:06:01;99716.09;;;19.91;83.09
9523;BME280;63165;43.016;25.784;2023-06-14T00:08:28;99709.00;;;19.92;83.58
9523;BME280;63165;43.016;25.784;2023-06-14T00:10:55;99710.59;;;19.94;83.19
9523;BME280;63165;43.016;25.784;2023-06-14T00:13:22;99717.72;;;19.94;83.93
9523;BME280;63165;43.016;25.784;2023-06-14T00:15:51;99710.59;;;19.94;82.96
9523;BME280;63165;43.016;25.784;2023-06-14T00:18:21;99712.41;;;19.94;83.52
9523;BME280;63165;43.016;25.784;2023-06-14T00:20:51;99717.81;;;19.92;83.02
9523;BME280;63165;43.016;25.784;2023-06-14T00:23:19;99712.69;;;19.89;83.34
9523;BME280;63165;43.016;25.784;2023-06-14T00:25:46;99717.41;;;19.84;83.54
9523;BME280;63165;43.016;25.784;2023-06-14T00:28:14;99713.22;;;19.80;84.07
9523;BME280;63165;43.016;25.784;2023-06-14T00:30:41;99709.22;;;19.73;84.39
9523;BME280;63165;43.016;25.784;2023-06-14T00:33:09;99713.00;;;19.69;84.30
9523;BME280;63165;43.016;25.784;2023-06-14T00:35:37;99709.94;;;19.61;84.86
9523;BME280;63165;43.016;25.784;2023-06-14T00:38:06;99712.19;;;19.52;84.85
9523;BME280;63165;43.016;25.784;2023-06-14T00:40:34;99701.00;;;19.47;85.79
9523;BME280;63165;43.016;25.784;2023-06-14T00:43:01;99702.72;;;19.48;85.62
9523;BME280;63165;43.016;25.784;2023-06-14T00:45:29;99697.41;;;19.48;85.16
9523;BME280;63165;43.016;25.784;2023-06-14T00:47:57;99696.72;;;19.45;84.53
9523;BME280;63165;43.016;25.784;2023-06-14T00:50:25;99689.66;;;19.45;84.28
9523;BME280;63165;43.016;25.784;2023-06-14T00:52:53;99698.53;;;19.44;83.69
9523;BME280;63165;43.016;25.784;2023-06-14T00:55:22;99692.56;;;19.40;84.42
9523;BME280;63165;43.016;25.784;2023-06-14T00:57:49;99697.84;;;19.40;84.32
9523;BME280;63165;43.016;25.784;2023-06-14T01:00:17;99694.34;;;19.40;83.55
9523;BME280;63165;43.016;25.784;2023-06-14T01:02:45;99695.22;;;19.40;84.35
9523;BME280;63165;43.016;25.784;2023-06-14T01:05:12;99699.06;;;19.35;84.17
9523;BME280;63165;43.016;25.784;2023-06-14T01:07:55;99693.78;;;19.35;84.33
9523;BME280;63165;43.016;25.784;2023-06-14T01:10:36;99686.84;;;19.32;83.74
9523;BME280;63165;43.016;25.784;2023-06-14T01:13:12;99687.19;;;19.26;84.25
9523;BME280;63165;43.016;25.784;2023-06-14T01:15:43;99690.03;;;19.23;84.66
9523;BME280;63165;43.016;25.784;2023-06-14T01:18:11;99685.19;;;19.15;84.24
9523;BME280;63165;43.016;25.784;2023-06-14T01:20:44;99684.69;;;19.09;84.59
9523;BME280;63165;43.016;25.784;2023-06-14T01:23:16;99687.41;;;19.07;84.40
9523;BME280;63165;43.016;25.784;2023-06-14T01:25:44;99692.22;;;19.00;84.86
9523;BME280;63165;43.016;25.784;2023-06-14T01:28:13;99695.97;;;18.96;84.45
9523;BME280;63165;43.016;25.784;2023-06-14T01:30:44;99693.69;;;18.90;85.26
9523;BME280;63165;43.016;25.784;2023-06-14T01:33:14;99693.00;;;18.87;85.09
9523;BME280;63165;43.016;25.784;2023-06-14T01:35:44;99686.81;;;18.70;85.18
9523;BME280;63165;43.016;25.784;2023-06-14T01:38:13;99685.81;;;18.73;85.35
9523;BME280;63165;43.016;25.784;2023-06-14T01:40:42;99693.44;;;18.63;85.52
9523;BME280;63165;43.016;25.784;2023-06-14T01:43:11;99689.66;;;18.67;85.06
9523;BME280;63165;43.016;25.784;2023-06-14T01:45:40;99693.06;;;18.69;84.68
9523;BME280;63165;43.016;25.784;2023-06-14T01:48:09;99684.53;;;18.64;84.72
9523;BME280;63165;43.016;25.784;2023-06-14T01:50:36;99686.84;;;18.54;85.36
9523;BME280;63165;43.016;25.784;2023-06-14T01:53:06;99690.84;;;18.46;85.36
9523;BME280;63165;43.016;25.784;2023-06-14T01:55:34;99692.91;;;18.40;85.69
9523;BME280;63165;43.016;25.784;2023-06-14T01:58:04;99693.16;;;18.36;85.30
9523;BME280;63165;43.016;25.784;2023-06-14T02:00:32;99710.50;;;18.41;85.46
9523;BME280;63165;43.016;25.784;2023-06-14T02:03:00;99708.94;;;18.37;85.11
9523;BME280;63165;43.016;25.784;2023-06-14T02:05:27;99714.41;;;18.34;85.42
9523;BME280;63165;43.016;25.784;2023-06-14T02:07:55;99711.06;;;18.31;85.83
9523;BME280;63165;43.016;25.784;2023-06-14T02:10:23;99716.56;;;18.28;85.91
9523;BME280;63165;43.016;25.784;2023-06-14T02:12:51;99712.59;;;18.19;86.28
9523;BME280;63165;43.016;25.784;2023-06-14T02:15:20;99719.63;;;18.20;86.07
9523;BME280;63165;43.016;25.784;2023-06-14T02:17:47;99716.84;;;18.21;85.55
9523;BME280;63165;43.016;25.784;2023-06-14T02:20:15;99710.72;;;18.21;85.41
9523;BME280;63165;43.016;25.784;2023-06-14T02:22:42;99710.72;;;18.21;85.38
9523;BME280;63165;43.016;25.784;2023-06-14T02:25:10;99695.72;;;18.04;85.80
9523;BME280;63165;43.016;25.784;2023-06-14T02:27:37;99704.22;;;18.11;85.34
9523;BME280;63165;43.016;25.784;2023-06-14T02:30:07;99701.66;;;18.09;86.22
9523;BME280;63165;43.016;25.784;2023-06-14T02:32:36;99715.88;;;18.07;86.41
9523;BME280;63165;43.016;25.784;2023-06-14T02:35:05;99710.22;;;17.97;86.21
9523;BME280;63165;43.016;25.784;2023-06-14T02:37:32;99714.53;;;17.99;86.79
9523;BME280;63165;43.016;25.784;2023-06-14T02:39:59;99707.91;;;17.91;86.34
9523;BME280;63165;43.016;25.784;2023-06-14T02:42:27;99722.75;;;17.93;86.68
9523;BME280;63165;43.016;25.784;2023-06-14T02:44:55;99719.34;;;17.91;86.82
9523;BME280;63165;43.016;25.784;2023-06-14T02:47:22;99728.06;;;17.93;87.43
9523;BME280;63165;43.016;25.784;2023-06-14T02:49:51;99726.28;;;17.94;87.66
9523;BME280;63165;43.016;25.784;2023-06-14T02:52:19;99729.72;;;17.96;87.60
9523;BME280;63165;43.016;25.784;2023-06-14T02:54:47;99736.94;;;17.92;87.48
9523;BME280;63165;43.016;25.784;2023-06-14T02:57:15;99731.66;;;17.92;88.21
9523;BME280;63165;43.016;25.784;2023-06-14T02:59:42;99740.50;;;17.91;88.62
9523;BME280;63165;43.016;25.784;2023-06-14T03:02:10;99749.56;;;17.87;89.55
9523;BME280;63165;43.016;25.784;2023-06-14T03:04:37;99742.47;;;17.88;90.07
9523;BME280;63165;43.016;25.784;2023-06-14T03:07:06;99750.47;;;17.86;90.19
9523;BME280;63165;43.016;25.784;2023-06-14T03:09:35;99753.13;;;17.86;90.96
9523;BME280;63165;43.016;25.784;2023-06-14T03:12:04;99753.28;;;17.83;92.07
9523;BME280;63165;43.016;25.784;2023-06-14T03:14:32;99757.50;;;17.87;92.04
9523;BME280;63165;43.016;25.784;2023-06-14T03:17:00;99765.28;;;17.90;91.58
9523;BME280;63165;43.016;25.784;2023-06-14T03:19:28;99757.25;;;17.92;92.71
9523;BME280;63165;43.016;25.784;2023-06-14T03:21:55;99754.69;;;17.90;93.02
9523;BME280;63165;43.016;25.784;2023-06-14T03:24:25;99763.88;;;18.00;93.44
9523;BME280;63165;43.016;25.784;2023-06-14T03:26:54;99764.34;;;18.09;92.67
9523;BME280;63165;43.016;25.784;2023-06-14T03:29:22;99763.06;;;18.16;91.86
9523;BME280;63165;43.016;25.784;2023-06-14T03:31:59;99763.06;;;18.16;93.07
9523;BME280;63165;43.016;25.784;2023-06-14T03:34:27;99762.28;;;18.14;92.86
9523;BME280;63165;43.016;25.784;2023-06-14T03:36:55;99778.47;;;18.25;93.82
9523;BME280;63165;43.016;25.784;2023-06-14T03:39:22;99775.66;;;18.28;93.37
9523;BME280;63165;43.016;25.784;2023-06-14T03:41:51;99780.97;;;18.28;93.48
9523;BME280;63165;43.016;25.784;2023-06-14T03:44:19;99780.81;;;18.31;94.26
9523;BME280;63165;43.016;25.784;2023-06-14T03:46:46;99778.75;;;18.36;93.81
9523;BME280;63165;43.016;25.784;2023-06-14T03:49:14;99780.22;;;18.42;94.25
9523;BME280;63165;43.016;25.784;2023-06-14T03:51:42;99783.56;;;18.46;94.21
9523;BME280;63165;43.016;25.784;2023-06-14T03:54:10;99786.81;;;18.51;93.81
9523;BME280;63165;43.016;25.784;2023-06-14T03:56:38;99781.38;;;18.54;94.36
9523;BME280;63165;43.016;25.784;2023-06-14T03:59:07;99790.78;;;18.59;94.26
9523;BME280;63165;43.016;25.784;2023-06-14T04:01:34;99782.63;;;18.62;93.36
9523;BME280;63165;43.016;25.784;2023-06-14T04:04:01;99793.00;;;18.67;92.50
9523;BME280;63165;43.016;25.784;2023-06-14T04:06:29;99781.44;;;18.68;92.80
9523;BME280;63165;43.016;25.784;2023-06-14T04:08:59;99785.56;;;18.74;93.17
9523;BME280;63165;43.016;25.784;2023-06-14T04:11:30;99795.94;;;18.78;92.98
9523;BME280;63165;43.016;25.784;2023-06-14T04:13:58;99787.66;;;18.85;93.57
9523;BME280;63165;43.016;25.784;2023-06-14T04:16:27;99798.78;;;18.91;92.46
9523;BME280;63165;43.016;25.784;2023-06-14T04:18:55;99782.13;;;18.89;92.69
9523;BME280;63165;43.016;25.784;2023-06-14T04:21:23;99799.72;;;18.90;92.37
9523;BME280;63165;43.016;25.784;2023-06-14T04:23:51;99790.34;;;19.00;93.11
9523;BME280;63165;43.016;25.784;2023-06-14T04:26:21;99792.72;;;19.05;92.34
9523;BME280;63165;43.016;25.784;2023-06-14T04:28:49;99799.38;;;19.12;92.32
9523;BME280;63165;43.016;25.784;2023-06-14T04:31:17;99801.88;;;19.15;92.57
9523;BME280;63165;43.016;25.784;2023-06-14T04:33:46;99789.03;;;19.08;92.75
9523;BME280;63165;43.016;25.784;2023-06-14T04:36:16;99795.88;;;19.12;92.41
9523;BME280;63165;43.016;25.784;2023-06-14T04:38:44;99811.44;;;19.18;92.98
9523;BME280;63165;43.016;25.784;2023-06-14T04:41:12;99811.97;;;19.25;92.80
9523;BME280;63165;43.016;25.784;2023-06-14T04:43:39;99812.38;;;19.33;93.08
9523;BME280;63165;43.016;25.784;2023-06-14T04:46:08;99811.94;;;19.40;93.57
9523;BME280;63165;43.016;25.784;2023-06-14T04:48:37;99801.31;;;19.40;93.54
9523;BME280;63165;43.016;25.784;2023-06-14T04:51:09;99808.41;;;19.56;93.06
9523;BME280;63165;43.016;25.784;2023-06-14T04:53:37;99812.91;;;19.70;92.36
9523;BME280;63165;43.016;25.784;2023-06-14T04:56:04;99820.38;;;19.79;92.58
9523;BME280;63165;43.016;25.784;2023-06-14T04:58:33;99810.25;;;19.86;92.62
9523;BME280;63165;43.016;25.784;2023-06-14T05:01:00;99816.22;;;19.89;92.43
9523;BME280;63165;43.016;25.784;2023-06-14T05:03:28;99827.38;;;20.10;92.53
9523;BME280;63165;43.016;25.784;2023-06-14T05:05:57;99803.91;;;20.03;91.55
9523;BME280;63165;43.016;25.784;2023-06-14T05:08:27;99836.63;;;20.33;91.86
9523;BME280;63165;43.016;25.784;2023-06-14T05:10:55;99828.09;;;20.43;90.73
9523;BME280;63165;43.016;25.784;2023-06-14T05:13:23;99827.53;;;20.52;89.99
9523;BME280;63165;43.016;25.784;2023-06-14T05:15:53;99828.00;;;20.59;90.21
9523;BME280;63165;43.016;25.784;2023-06-14T05:18:20;99850.06;;;20.75;89.14
9523;BME280;63165;43.016;25.784;2023-06-14T05:20:48;99842.16;;;20.88;88.05
9523;BME280;63165;43.016;25.784;2023-06-14T05:23:15;99838.44;;;20.90;87.21
9523;BME280;63165;43.016;25.784;2023-06-14T05:25:44;99825.81;;;20.94;86.91
9523;BME280;63165;43.016;25.784;2023-06-14T05:28:12;99823.31;;;21.05;86.28
9523;BME280;63165;43.016;25.784;2023-06-14T05:30:40;99829.38;;;21.22;84.87
9523;BME280;63165;43.016;25.784;2023-06-14T05:33:08;99847.00;;;21.37;84.94
9523;BME280;63165;43.016;25.784;2023-06-14T05:35:35;99845.38;;;21.49;84.42
9523;BME280;63165;43.016;25.784;2023-06-14T05:38:03;99851.06;;;21.57;84.25
9523;BME280;63165;43.016;25.784;2023-06-14T05:40:31;99856.53;;;21.68;83.15
9523;BME280;63165;43.016;25.784;2023-06-14T05:43:00;99855.28;;;21.74;82.94
9523;BME280;63165;43.016;25.784;2023-06-14T05:45:27;99857.38;;;21.96;82.14
9523;BME280;63165;43.016;25.784;2023-06-14T05:47:55;99861.00;;;22.08;81.76
9523;BME280;63165;43.016;25.784;2023-06-14T05:50:22;99851.66;;;22.15;81.05
9523;BME280;63165;43.016;25.784;2023-06-14T05:52:50;99849.44;;;22.35;79.81
9523;BME280;63165;43.016;25.784;2023-06-14T05:55:17;99849.53;;;22.33;79.56
9523;BME280;63165;43.016;25.784;2023-06-14T05:57:45;99847.63;;;22.48;78.56
9523;BME280;63165;43.016;25.784;2023-06-14T06:00:16;99866.63;;;22.69;78.18
9523;BME280;63165;43.016;25.784;2023-06-14T06:02:44;99853.69;;;22.76;77.64
9523;BME280;63165;43.016;25.784;2023-06-14T06:05:13;99859.91;;;22.76;76.19
9523;BME280;63165;43.016;25.784;2023-06-14T06:07:41;99856.47;;;22.74;75.46
9523;BME280;63165;43.016;25.784;2023-06-14T06:10:10;99884.63;;;22.91;75.15
9523;BME280;63165;43.016;25.784;2023-06-14T06:12:38;99883.69;;;23.05;74.69
9523;BME280;63165;43.016;25.784;2023-06-14T06:15:06;99880.56;;;23.11;73.60
9523;BME280;63165;43.016;25.784;2023-06-14T06:17:39;99875.75;;;23.29;71.55
9523;BME280;63165;43.016;25.784;2023-06-14T06:20:07;99876.34;;;23.45;71.56
9523;BME280;63165;43.016;25.784;2023-06-14T06:22:35;99863.25;;;23.54;70.02
9523;BME280;63165;43.016;25.784;2023-06-14T06:25:03;99886.34;;;23.79;68.11
9523;BME280;63165;43.016;25.784;2023-06-14T06:27:32;99882.16;;;23.88;66.48
9523;BME280;63165;43.016;25.784;2023-06-14T06:29:59;99869.56;;;24.01;66.30
9523;BME280;63165;43.016;25.784;2023-06-14T06:32:27;99870.63;;;24.22;64.98
9523;BME280;63165;43.016;25.784;2023-06-14T06:34:56;99866.72;;;24.27;65.04
9523;BME280;63165;43.016;25.784;2023-06-14T06:37:25;99874.91;;;24.48;64.96
9523;BME280;63165;43.016;25.784;2023-06-14T06:39:53;99883.00;;;24.70;64.66
9523;BME280;63165;43.016;25.784;2023-06-14T06:42:20;99882.88;;;24.83;63.24
9523;BME280;63165;43.016;25.784;2023-06-14T06:44:48;99880.69;;;24.99;62.05
9523;BME280;63165;43.016;25.784;2023-06-14T06:47:17;99882.88;;;25.06;60.47
9523;BME280;63165;43.016;25.784;2023-06-14T06:49:45;99874.72;;;25.18;59.90
9523;BME280;63165;43.016;25.784;2023-06-14T06:52:14;99874.00;;;25.28;60.87
9523;BME280;63165;43.016;25.784;2023-06-14T06:54:41;99878.50;;;25.38;60.44
9523;BME280;63165;43.016;25.784;2023-06-14T06:57:09;99875.31;;;25.45;59.35
9523;BME280;63165;43.016;25.784;2023-06-14T06:59:37;99874.81;;;25.40;59.29
9523;BME280;63165;43.016;25.784;2023-06-14T07:02:05;99871.16;;;25.52;58.63
9523;BME280;63165;43.016;25.784;2023-06-14T07:04:33;99839.81;;;25.31;57.29
9523;BME280;63165;43.016;25.784;2023-06-14T07:07:00;99857.53;;;25.55;57.61
9523;BME280;63165;43.016;25.784;2023-06-14T07:09:29;99859.88;;;25.37;57.29
9523;BME280;63165;43.016;25.784;2023-06-14T07:11:56;99856.69;;;25.43;57.83
9523;BME280;63165;43.016;25.784;2023-06-14T07:14:24;99863.59;;;25.57;57.26
9523;BME280;63165;43.016;25.784;2023-06-14T07:16:51;99837.78;;;25.56;56.60
9523;BME280;63165;43.016;25.784;2023-06-14T07:19:19;99856.66;;;25.87;56.17
9523;BME280;63165;43.016;25.784;2023-06-14T07:21:46;99857.03;;;25.93;56.56
9523;BME280;63165;43.016;25.784;2023-06-14T07:24:14;99857.09;;;26.03;57.20
9523;BME280;63165;43.016;25.784;2023-06-14T07:26:43;99851.94;;;26.11;57.09
9523;BME280;63165;43.016;25.784;2023-06-14T07:29:10;99860.19;;;26.20;55.89
9523;BME280;63165;43.016;25.784;2023-06-14T07:31:38;99845.22;;;26.17;55.38
9523;BME280;63165;43.016;25.784;2023-06-14T07:34:06;99858.63;;;26.17;55.52
9523;BME280;63165;43.016;25.784;2023-06-14T07:36:33;99845.25;;;26.27;56.04
9523;BME280;63165;43.016;25.784;2023-06-14T07:39:02;99851.03;;;26.43;56.23
9523;BME280;63165;43.016;25.784;2023-06-14T07:41:31;99849.69;;;26.59;55.78
9523;BME280;63165;43.016;25.784;2023-06-14T07:44:00;99853.28;;;26.69;55.27
9523;BME280;63165;43.016;25.784;2023-06-14T07:46:28;99853.75;;;26.84;54.53
9523;BME280;63165;43.016;25.784;2023-06-14T07:48:56;99852.56;;;26.98;54.10
9523;BME280;63165;43.016;25.784;2023-06-14T07:51:23;99848.50;;;27.13;53.60
9523;BME280;63165;43.016;25.784;2023-06-14T07:53:50;99850.63;;;27.19;52.74
9523;BME280;63165;43.016;25.784;2023-06-14T07:56:18;99849.97;;;27.27;52.21
9523;BME280;63165;43.016;25.784;2023-06-14T07:58:46;99840.50;;;27.33;51.38
9523;BME280;63165;43.016;25.784;2023-06-14T08:01:15;99847.06;;;27.49;51.57
9523;BME280;63165;43.016;25.784;2023-06-14T08:03:42;99841.69;;;27.69;51.39
9523;BME280;63165;43.016;25.784;2023-06-14T08:06:10;99845.84;;;27.93;51.31
9523;BME280;63165;43.016;25.784;2023-06-14T08:08:37;99844.25;;;28.10;51.01
9523;BME280;63165;43.016;25.784;2023-06-14T08:11:04;99842.97;;;28.23;50.33
9523;BME280;63165;43.016;25.784;2023-06-14T08:13:32;99841.38;;;28.31;49.23
9523;BME280;63165;43.016;25.784;2023-06-14T08:15:59;99839.13;;;28.36;48.97
9523;BME280;63165;43.016;25.784;2023-06-14T08:18:28;99845.59;;;28.43;48.47
9523;BME280;63165;43.016;25.784;2023-06-14T08:20:56;99844.06;;;28.40;47.41
9523;BME280;63165;43.016;25.784;2023-06-14T08:23:24;99846.03;;;28.38;46.89
9523;BME280;63165;43.016;25.784;2023-06-14T08:25:51;99849.72;;;28.57;47.33
9523;BME280;63165;43.016;25.784;2023-06-14T08:28:18;99848.09;;;28.74;47.27
9523;BME280;63165;43.016;25.784;2023-06-14T08:30:46;99848.03;;;28.83;47.26
9523;BME280;63165;43.016;25.784;2023-06-14T08:33:14;99839.91;;;28.93;47.22
9523;BME280;63165;43.016;25.784;2023-06-14T08:35:44;99835.78;;;28.99;46.60
9523;BME280;63165;43.016;25.784;2023-06-14T08:38:11;99848.41;;;28.98;46.58
9523;BME280;63165;43.016;25.784;2023-06-14T08:40:39;99837.22;;;28.93;46.21
9523;BME280;63165;43.016;25.784;2023-06-14T08:43:08;99845.50;;;29.10;46.00
9523;BME280;63165;43.016;25.784;2023-06-14T08:45:36;99844.63;;;29.19;46.30
9523;BME280;63165;43.016;25.784;2023-06-14T08:48:04;99850.56;;;29.22;45.84
9523;BME280;63165;43.016;25.784;2023-06-14T08:50:34;99847.66;;;29.34;45.18
9523;BME280;63165;43.016;25.784;2023-06-14T08:53:06;99847.91;;;29.40;44.61
9523;BME280;63165;43.016;25.784;2023-06-14T08:55:36;99842.44;;;29.50;44.68
9523;BME280;63165;43.016;25.784;2023-06-14T08:58:05;99833.44;;;29.59;44.64
9523;BME280;63165;43.016;25.784;2023-06-14T09:00:35;99831.28;;;29.81;44.11
9523;BME280;63165;43.016;25.784;2023-06-14T09:03:04;99829.91;;;29.95;43.91
9523;BME280;63165;43.016;25.784;2023-06-14T09:05:31;99835.16;;;29.96;43.63
9523;BME280;63165;43.016;25.784;2023-06-14T09:07:59;99832.66;;;30.03;44.35
9523;BME280;63165;43.016;25.784;2023-06-14T09:10:28;99824.47;;;30.13;44.04
9523;BME280;63165;43.016;25.784;2023-06-14T09:13:00;99834.94;;;30.16;43.17
9523;BME280;63165;43.016;25.784;2023-06-14T09:15:28;99830.53;;;30.15;43.21
9523;BME280;63165;43.016;25.784;2023-06-14T09:17:56;99831.22;;;30.35;43.15
9523;BME280;63165;43.016;25.784;2023-06-14T09:20:24;99826.25;;;30.48;42.35
9523;BME280;63165;43.016;25.784;2023-06-14T09:22:53;99822.00;;;30.72;42.50
9523;BME280;63165;43.016;25.784;2023-06-14T09:25:20;99830.91;;;30.99;41.76
9523;BME280;63165;43.016;25.784;2023-06-14T09:27:51;99826.38;;;31.07;40.50
9523;BME280;63165;43.016;25.784;2023-06-14T09:30:20;99834.56;;;31.24;39.30
9523;BME280;63165;43.016;25.784;2023-06-14T09:32:47;99840.31;;;31.45;38.95
9523;BME280;63165;43.016;25.784;2023-06-14T09:35:17;99822.13;;;31.64;38.99
9523;BME280;63165;43.016;25.784;2023-06-14T09:37:45;99836.69;;;31.87;37.99
9523;BME280;63165;43.016;25.784;2023-06-14T09:40:12;99827.56;;;31.80;36.74
9523;BME280;63165;43.016;25.784;2023-06-14T09:42:40;99835.00;;;31.78;36.26
9523;BME280;63165;43.016;25.784;2023-06-14T09:45:11;99832.63;;;31.67;35.67
9523;BME280;63165;43.016;25.784;2023-06-14T09:47:39;99828.22;;;31.58;34.75
9523;BME280;63165;43.016;25.784;2023-06-14T09:50:07;99803.66;;;31.43;35.09
9523;BME280;63165;43.016;25.784;2023-06-14T09:52:35;99820.94;;;31.66;34.85
9523;BME280;63165;43.016;25.784;2023-06-14T09:55:12;99833.31;;;31.85;35.20
9523;BME280;63165;43.016;25.784;2023-06-14T09:57:41;99824.50;;;31.91;34.88
9523;BME280;63165;43.016;25.784;2023-06-14T10:00:13;99829.94;;;31.91;35.00
9523;BME280;63165;43.016;25.784;2023-06-14T10:02:43;99827.38;;;31.90;34.75
9523;BME280;63165;43.016;25.784;2023-06-14T10:05:17;99816.22;;;31.93;34.75
9523;BME280;63165;43.016;25.784;2023-06-14T10:07:53;99826.19;;;31.92;33.66
9523;BME280;63165;43.016;25.784;2023-06-14T10:10:20;99824.69;;;31.90;33.96
9523;BME280;63165;43.016;25.784;2023-06-14T10:12:49;99813.69;;;31.91;34.60
9523;BME280;63165;43.016;25.784;2023-06-14T10:15:22;99814.03;;;31.88;34.55
9523;BME280;63165;43.016;25.784;2023-06-14T10:17:56;99812.84;;;31.83;34.63
9523;BME280;63165;43.016;25.784;2023-06-14T10:20:30;99806.44;;;31.84;35.09
9523;BME280;63165;43.016;25.784;2023-06-14T10:23:03;99803.56;;;31.85;35.33
9523;BME280;63165;43.016;25.784;2023-06-14T10:25:34;99803.38;;;31.87;35.28
9523;BME280;63165;43.016;25.784;2023-06-14T10:28:20;99795.09;;;32.05;34.72
9523;BME280;63165;43.016;25.784;2023-06-14T10:31:13;99797.78;;;32.21;34.76
9523;BME280;63165;43.016;25.784;2023-06-14T10:33:49;99797.91;;;32.44;34.37
9523;BME280;63165;43.016;25.784;2023-06-14T10:36:27;99802.69;;;32.34;34.09
9523;BME280;63165;43.016;25.784;2023-06-14T10:39:00;99799.31;;;32.16;34.35
9523;BME280;63165;43.016;25.784;2023-06-14T10:41:28;99803.34;;;32.28;34.19
9523;BME280;63165;43.016;25.784;2023-06-14T10:47:07;99796.69;;;32.47;34.48
9523;BME280;63165;43.016;25.784;2023-06-14T10:49:43;99795.06;;;32.38;34.76
9523;BME280;63165;43.016;25.784;2023-06-14T10:52:12;99802.50;;;32.27;34.89
9523;BME280;63165;43.016;25.784;2023-06-14T10:55:02;99795.25;;;32.20;35.03
9523;BME280;63165;43.016;25.784;2023-06-14T10:57:30;99792.38;;;31.97;35.20
9523;BME280;63165;43.016;25.784;2023-06-14T10:59:58;99800.16;;;32.00;35.60
9523;BME280;63165;43.016;25.784;2023-06-14T11:05:49;99805.56;;;31.91;36.73
9523;BME280;63165;43.016;25.784;2023-06-14T11:08:50;99797.97;;;31.95;36.61
9523;BME280;63165;43.016;25.784;2023-06-14T11:11:22;99800.69;;;32.03;36.58
9523;BME280;63165;43.016;25.784;2023-06-14T11:13:51;99794.75;;;32.16;36.18
9523;BME280;63165;43.016;25.784;2023-06-14T11:16:18;99786.97;;;32.21;36.10
9523;BME280;63165;43.016;25.784;2023-06-14T11:18:46;99782.22;;;32.15;35.93
9523;BME280;63165;43.016;25.784;2023-06-14T11:21:19;99777.50;;;32.17;35.96
9523;BME280;63165;43.016;25.784;2023-06-14T11:23:50;99776.97;;;32.22;35.85
9523;BME280;63165;43.016;25.784;2023-06-14T11:26:25;99776.44;;;32.26;35.98
9523;BME280;63165;43.016;25.784;2023-06-14T11:28:57;99784.75;;;32.25;36.57
9523;BME280;63165;43.016;25.784;2023-06-14T11:31:25;99784.25;;;32.21;36.37
9523;BME280;63165;43.016;25.784;2023-06-14T11:33:54;99784.09;;;32.15;36.00
9523;BME280;63165;43.016;25.784;2023-06-14T11:36:26;99759.22;;;31.95;36.12
9523;BME280;63165;43.016;25.784;2023-06-14T11:38:58;99785.28;;;32.04;35.85
9523;BME280;63165;43.016;25.784;2023-06-14T11:41:32;99773.78;;;31.93;35.94
9523;BME280;63165;43.016;25.784;2023-06-14T11:44:00;99772.94;;;31.93;35.77
9523;BME280;63165;43.016;25.784;2023-06-14T11:46:27;99765.13;;;31.98;35.95
9523;BME280;63165;43.016;25.784;2023-06-14T11:48:55;99763.47;;;32.05;36.04
9523;BME280;63165;43.016;25.784;2023-06-14T11:51:24;99771.06;;;32.18;36.04
9523;BME280;63165;43.016;25.784;2023-06-14T11:53:51;99764.78;;;32.26;35.33
9523;BME280;63165;43.016;25.784;2023-06-14T11:56:19;99760.69;;;32.30;35.66
9523;BME280;63165;43.016;25.784;2023-06-14T11:58:46;99743.94;;;32.35;35.23
9523;BME280;63165;43.016;25.784;2023-06-14T12:01:16;99760.78;;;32.61;34.91
9523;BME280;63165;43.016;25.784;2023-06-14T12:03:48;99756.63;;;32.82;35.06
9523;BME280;63165;43.016;25.784;2023-06-14T12:06:16;99758.44;;;32.98;35.08
9523;BME280;63165;43.016;25.784;2023-06-14T12:08:45;99759.56;;;33.03;34.49
9523;BME280;63165;43.016;25.784;2023-06-14T12:11:15;99760.91;;;33.07;34.76
9523;BME280;63165;43.016;25.784;2023-06-14T12:13:43;99755.81;;;33.13;34.17
9523;BME280;63165;43.016;25.784;2023-06-14T12:16:11;99760.06;;;33.07;33.87
9523;BME280;63165;43.016;25.784;2023-06-14T12:18:39;99752.78;;;33.07;33.82
9523;BME280;63165;43.016;25.784;2023-06-14T12:21:09;99744.31;;;33.02;34.19
9523;BME280;63165;43.016;25.784;2023-06-14T12:23:42;99757.16;;;33.08;34.23
9523;BME280;63165;43.016;25.784;2023-06-14T12:26:11;99752.94;;;33.06;34.25
9523;BME280;63165;43.016;25.784;2023-06-14T12:28:40;99752.41;;;33.11;34.31
9523;BME280;63165;43.016;25.784;2023-06-14T12:31:08;99755.28;;;33.17;34.10
9523;BME280;63165;43.016;25.784;2023-06-14T12:33:35;99739.00;;;33.17;33.98
9523;BME280;63165;43.016;25.784;2023-06-14T12:36:04;99744.44;;;33.17;34.33
9523;BME280;63165;43.016;25.784;2023-06-14T12:38:32;99731.44;;;33.13;34.30
9523;BME280;63165;43.016;25.784;2023-06-14T12:41:00;99736.03;;;33.04;34.23
9523;BME280;63165;43.016;25.784;2023-06-14T12:43:29;99741.34;;;32.89;34.46
9523;BME280;63165;43.016;25.784;2023-06-14T12:45:56;99731.81;;;32.70;34.52
9523;BME280;63165;43.016;25.784;2023-06-14T12:48:23;99735.03;;;32.65;34.89
9523;BME280;63165;43.016;25.784;2023-06-14T12:50:52;99729.44;;;32.67;34.69
9523;BME280;63165;43.016;25.784;2023-06-14T12:53:20;99726.91;;;32.65;35.14
9523;BME280;63165;43.016;25.784;2023-06-14T12:55:47;99724.03;;;32.67;34.85
9523;BME280;63165;43.016;25.784;2023-06-14T12:58:14;99723.81;;;32.77;34.76
9523;BME280;63165;43.016;25.784;2023-06-14T13:00:44;99717.38;;;32.78;34.82
9523;BME280;63165;43.016;25.784;2023-06-14T13:03:11;99716.97;;;32.89;34.78
9523;BME280;63165;43.016;25.784;2023-06-14T13:05:38;99718.34;;;32.85;34.91
9523;BME280;63165;43.016;25.784;2023-06-14T13:08:07;99710.41;;;32.83;34.70
9523;BME280;63165;43.016;25.784;2023-06-14T13:10:35;99706.84;;;32.83;34.35
9523;BME280;63165;43.016;25.784;2023-06-14T13:13:02;99699.69;;;32.90;34.74
9523;BME280;63165;43.016;25.784;2023-06-14T13:15:30;99702.28;;;32.83;35.13